Terminal Aerodrome Forecast
Issued by NWS

Home | Current Version | Previous Version | Text Only | Print | Product List | Glossary On
Versions: 1 2 3 4 5 6 7 8 9 10 11 12 13 14 15 16 17 18 19 20 21 22 23 24 25 26 27 28 29 30
659
FTUS43 KGRR 241251 AAB
TAFBTL
TAF AMD
KBTL 241251Z 2413/2512 07010KT 2SM BR VCSH OVC003
     FM241430 07010KT 2SM -TSRA BR OVC004CB
     FM241600 14010KT 4SM BR VCSH OVC008
     FM241900 17010KT 4SM -SHRA BR VCTS SCT008CB BKN015
     FM250130 25010KT 4SM -DZ BR OVC012=

USA.gov is the U.S. government's official web portal to all federal, state and local government web resources and services.